Time,TemperatureF,DewpointF,PressureIn,WindDirection,WindDirectionDegrees,WindSpeedMPH,WindSpeedGustMPH,Humidity,HourlyPrecipIn,Conditions,Clouds,dailyrainin,SoftwareType,DateUTC
2013-02-01 00:01:00,25.9,6.5,29.03,SSW,202,1.6,1.6,43,0.00,,---,0.00,VWS V14.01,2013-02-01 05:01:00,
2013-02-01 00:04:00,25.9,6.5,29.03,SSW,202,1.6,1.6,43,0.00,,---,0.00,VWS V14.01,2013-02-01 05:04:00,
2013-02-01 00:05:00,25.9,6.5,29.03,SSW,202,1.6,1.6,43,0.00,,---,0.00,VWS V14.01,2013-02-01 05:05:00,
2013-02-01 00:07:00,25.9,6.5,29.03,SSW,202,1.6,1.6,43,0.00,,---,0.00,VWS V14.01,2013-02-01 05:07:00,
2013-02-01 00:12:00,25.9,6.5,29.03,SSW,202,2.0,2.0,43,0.00,,---,0.00,VWS V14.01,2013-02-01 05:12:00,
2013-02-01 00:17:00,25.7,6.3,29.03,NW,315,5.6,5.6,43,0.00,,---,0.00,VWS V14.01,2013-02-01 05:17:00,
2013-02-01 00:23:00,25.7,6.3,29.03,WSW,248,3.6,3.6,43,0.00,,---,0.00,VWS V14.01,2013-02-01 05:23:00,
2013-02-01 00:28:00,25.7,5.8,29.03,SSE,158,0.9,2.5,42,0.00,,---,0.00,VWS V14.01,2013-02-01 05:28:00,
2013-02-01 00:33:00,25.7,5.8,29.03,SW,225,5.8,5.8,42,0.00,,---,0.00,VWS V14.01,2013-02-01 05:33:00,
2013-02-01 00:38:00,25.5,5.6,29.03,East,90,4.7,5.4,42,0.00,,---,0.00,VWS V14.01,2013-02-01 05:38:00,
2013-02-01 00:43:00,25.5,5.6,29.03,WNW,292,6.5,6.5,42,0.00,,---,0.00,VWS V14.01,2013-02-01 05:43:00,
2013-02-01 00:48:00,25.3,5.5,29.03,West,270,9.4,9.4,42,0.00,,---,0.00,VWS V14.01,2013-02-01 05:48:00,
2013-02-01 00:53:00,25.3,5.5,29.03,WNW,292,3.1,5.8,42,0.00,,---,0.00,VWS V14.01,2013-02-01 05:53:00,
2013-02-01 00:58:00,25.3,5.5,29.03,SSE,158,1.3,1.3,42,0.00,,---,0.00,VWS V14.01,2013-02-01 05:58:00,
2013-02-01 01:03:00,25.2,5.3,29.03,West,270,6.0,8.1,42,0.00,,---,0.00,VWS V14.01,2013-02-01 06:03:00,
2013-02-01 01:08:00,25.2,5.3,29.06,NNW,338,0.9,0.9,42,0.00,,---,0.00,VWS V14.01,2013-02-01 06:08:00,
2013-02-01 01:14:00,24.6,4.8,29.06,NNW,338,0.9,2.0,42,0.00,,---,0.00,VWS V14.01,2013-02-01 06:14:00,
2013-02-01 01:20:00,24.6,4.8,29.06,WNW,292,2.9,3.6,42,0.00,,---,0.00,VWS V14.01,2013-02-01 06:20:00,
2013-02-01 01:25:00,24.6,4.8,29.06,SW,225,2.5,2.5,42,0.00,,---,0.00,VWS V14.01,2013-02-01 06:25:00,
2013-02-01 01:30:00,24.6,4.8,29.06,WSW,248,3.8,3.8,42,0.00,,---,0.00,VWS V14.01,2013-02-01 06:30:00,
2013-02-01 01:36:00,24.6,4.8,29.06,WNW,292,1.6,1.6,42,0.00,,---,0.00,VWS V14.01,2013-02-01 06:36:00,
2013-02-01 01:41:00,24.6,4.8,29.06,NNE,22,3.4,3.4,42,0.00,,---,0.00,VWS V14.01,2013-02-01 06:41:00,
2013-02-01 01:46:00,24.6,4.8,29.06,WNW,292,1.3,2.2,42,0.00,,---,0.00,VWS V14.01,2013-02-01 06:46:00,
2013-02-01 01:52:00,24.6,4.8,29.06,NNW,338,3.8,3.8,42,0.00,,---,0.00,VWS V14.01,2013-02-01 06:52:00,
2013-02-01 01:57:00,24.4,5.2,29.06,WNW,292,2.7,4.0,43,0.00,,---,0.00,VWS V14.01,2013-02-01 06:57:00,
2013-02-01 02:02:00,24.4,5.2,29.06,West,270,2.2,2.2,43,0.00,,---,0.00,VWS V14.01,2013-02-01 07:02:00,
2013-02-01 02:07:00,24.1,4.8,29.06,WSW,248,2.5,2.9,43,0.00,,---,0.00,VWS V14.01,2013-02-01 07:07:00,
2013-02-01 02:12:00,23.7,4.5,29.06,West,270,2.0,3.1,43,0.00,,---,0.00,VWS V14.01,2013-02-01 07:12:00,
2013-02-01 02:17:00,23.7,4.5,29.06,WSW,248,3.6,3.6,43,0.00,,---,0.00,VWS V14.01,2013-02-01 07:17:00,
2013-02-01 02:22:00,23.5,4.3,29.06,West,270,2.5,3.6,43,0.00,,---,0.00,VWS V14.01,2013-02-01 07:22:00,
2013-02-01 02:28:00,23.5,4.3,29.06,WNW,292,3.1,4.9,43,0.00,,---,0.00,VWS V14.01,2013-02-01 07:28:00,
2013-02-01 02:34:00,23.5,4.3,29.06,WSW,248,5.6,5.6,43,0.00,,---,0.00,VWS V14.01,2013-02-01 07:34:00,
2013-02-01 02:39:00,23.5,4.3,29.06,NNW,338,10.3,10.3,43,0.00,,---,0.00,VWS V14.01,2013-02-01 07:39:00,
2013-02-01 02:44:00,23.5,4.3,29.06,WNW,292,5.6,5.6,43,0.00,,---,0.00,VWS V14.01,2013-02-01 07:44:00,
2013-02-01 02:50:00,23.5,3.8,29.06,SSW,202,2.5,2.7,42,0.00,,---,0.00,VWS V14.01,2013-02-01 07:50:00,
2013-02-01 02:55:00,23.4,4.2,29.06,NNW,338,2.5,2.9,43,0.00,,---,0.00,VWS V14.01,2013-02-01 07:55:00,
2013-02-01 03:00:00,23.2,4.0,29.06,SW,225,1.3,2.5,43,0.00,,---,0.00,VWS V14.01,2013-02-01 08:00:00,
2013-02-01 03:05:00,23.0,3.8,29.06,SSW,202,3.8,4.0,43,0.00,,---,0.00,VWS V14.01,2013-02-01 08:05:00,
2013-02-01 03:10:00,23.0,3.8,29.06,West,270,4.9,4.9,43,0.00,,---,0.00,VWS V14.01,2013-02-01 08:10:00,
2013-02-01 03:15:00,23.0,3.8,29.06,South,180,6.5,6.5,43,0.00,,---,0.00,VWS V14.01,2013-02-01 08:15:00,
2013-02-01 03:20:00,23.0,3.8,29.09,WNW,292,4.0,6.3,43,0.00,,---,0.00,VWS V14.01,2013-02-01 08:20:00,
2013-02-01 03:25:00,23.0,3.8,29.09,West,270,3.8,5.6,43,0.00,,---,0.00,VWS V14.01,2013-02-01 08:25:00,
2013-02-01 03:30:00,23.0,3.8,29.09,WNW,292,3.1,3.4,43,0.00,,---,0.00,VWS V14.01,2013-02-01 08:30:00,
2013-02-01 03:35:00,23.0,3.8,29.09,West,270,4.3,4.3,43,0.00,,---,0.00,VWS V14.01,2013-02-01 08:35:00,
2013-02-01 03:41:00,22.8,3.7,29.09,WNW,292,2.9,2.9,43,0.00,,---,0.00,VWS V14.01,2013-02-01 08:41:00,
2013-02-01 03:46:00,23.0,3.8,29.09,West,270,2.7,4.3,43,0.00,,---,0.00,VWS V14.01,2013-02-01 08:46:00,
2013-02-01 03:51:00,23.0,3.3,29.09,WNW,292,4.3,6.0,42,0.00,,---,0.00,VWS V14.01,2013-02-01 08:51:00,
2013-02-01 03:56:00,23.2,3.5,29.09,WSW,248,17.2,17.2,42,0.00,,---,0.00,VWS V14.01,2013-02-01 08:56:00,
2013-02-01 04:01:00,23.2,3.5,29.09,West,270,10.3,10.3,42,0.00,,---,0.00,VWS V14.01,2013-02-01 09:01:00,
2013-02-01 04:06:00,23.2,3.5,29.09,SSW,202,8.7,13.0,42,0.00,,---,0.00,VWS V14.01,2013-02-01 09:06:00,
2013-02-01 04:11:00,23.2,3.5,29.09,West,270,9.8,9.8,42,0.00,,---,0.00,VWS V14.01,2013-02-01 09:11:00,
2013-02-01 04:16:00,23.2,3.5,29.09,West,270,2.7,7.2,42,0.00,,---,0.00,VWS V14.01,2013-02-01 09:16:00,
2013-02-01 04:21:00,23.2,3.5,29.12,WNW,292,3.8,7.6,42,0.00,,---,0.00,VWS V14.01,2013-02-01 09:21:00,
2013-02-01 04:27:00,23.0,3.3,29.12,SSE,158,2.0,3.4,42,0.00,,---,0.00,VWS V14.01,2013-02-01 09:27:00,
2013-02-01 04:32:00,23.0,3.3,29.12,WNW,292,1.1,3.6,42,0.00,,---,0.00,VWS V14.01,2013-02-01 09:32:00,
2013-02-01 04:37:00,22.8,3.2,29.12,NNW,338,1.1,2.9,42,0.00,,---,0.00,VWS V14.01,2013-02-01 09:37:00,
2013-02-01 04:43:00,22.5,2.8,29.12,WSW,248,0.0,2.0,42,0.00,,---,0.00,VWS V14.01,2013-02-01 09:43:00,
2013-02-01 04:50:00,22.5,2.8,29.12,WNW,292,1.1,3.1,42,0.00,,---,0.00,VWS V14.01,2013-02-01 09:50:00,
2013-02-01 04:55:00,22.3,2.7,29.12,West,270,3.4,3.4,42,0.00,,---,0.00,VWS V14.01,2013-02-01 09:55:00,
2013-02-01 05:00:00,22.6,3.0,29.12,NNW,338,2.2,2.9,42,0.00,,---,0.00,VWS V14.01,2013-02-01 10:00:00,
2013-02-01 05:05:00,22.5,2.8,29.12,WNW,292,5.6,5.6,42,0.00,,---,0.00,VWS V14.01,2013-02-01 10:05:00,
2013-02-01 05:10:00,22.6,3.0,29.12,West,270,2.9,3.8,42,0.00,,---,0.00,VWS V14.01,2013-02-01 10:10:00,
2013-02-01 05:15:00,22.6,3.0,29.12,WSW,248,4.0,7.8,42,0.00,,---,0.00,VWS V14.01,2013-02-01 10:15:00,
2013-02-01 05:20:00,22.6,3.0,29.12,East,90,6.3,8.1,42,0.00,,---,0.00,VWS V14.01,2013-02-01 10:20:00,
2013-02-01 05:25:00,22.6,3.0,29.12,West,270,10.3,10.3,42,0.00,,---,0.00,VWS V14.01,2013-02-01 10:25:00,
2013-02-01 05:30:00,22.6,2.5,29.12,WSW,248,2.7,4.9,41,0.00,,---,0.00,VWS V14.01,2013-02-01 10:30:00,
2013-02-01 05:36:00,22.5,2.8,29.12,SSW,202,2.5,6.0,42,0.00,,---,0.00,VWS V14.01,2013-02-01 10:36:00,
2013-02-01 05:42:00,22.3,2.7,29.12,WNW,292,1.6,3.8,42,0.00,,---,0.00,VWS V14.01,2013-02-01 10:42:00,
2013-02-01 05:47:00,22.1,2.5,29.12,West,270,4.9,5.4,42,0.00,,---,0.00,VWS V14.01,2013-02-01 10:47:00,
2013-02-01 05:53:00,22.1,2.5,29.14,SW,225,4.9,10.3,42,0.00,,---,0.00,VWS V14.01,2013-02-01 10:53:00,
2013-02-01 05:59:00,21.9,2.4,29.14,NNE,22,4.0,5.8,42,0.00,,---,0.00,VWS V14.01,2013-02-01 10:59:00,
2013-02-01 06:04:00,21.9,2.4,29.14,ENE,68,5.8,6.0,42,0.00,,---,0.00,VWS V14.01,2013-02-01 11:04:00,
2013-02-01 06:09:00,21.9,2.4,29.14,SSW,202,3.1,5.8,42,0.00,,---,0.00,VWS V14.01,2013-02-01 11:09:00,
2013-02-01 06:14:00,21.9,2.4,29.14,West,270,6.5,7.4,42,0.00,,---,0.00,VWS V14.01,2013-02-01 11:14:00,
2013-02-01 06:20:00,21.7,2.2,29.17,West,270,3.8,3.8,42,0.00,,---,0.00,VWS V14.01,2013-02-01 11:20:00,
2013-02-01 06:26:00,21.9,2.4,29.17,SW,225,3.8,6.0,42,0.00,,---,0.00,VWS V14.01,2013-02-01 11:26:00,
2013-02-01 06:31:00,21.9,2.4,29.17,WNW,292,7.6,9.8,42,0.00,,---,0.00,VWS V14.01,2013-02-01 11:31:00,
2013-02-01 06:36:00,21.9,2.4,29.17,NW,315,7.4,9.8,42,0.00,,---,0.00,VWS V14.01,2013-02-01 11:36:00,
2013-02-01 06:41:00,21.9,2.4,29.17,WSW,248,6.5,6.5,42,0.00,,---,0.00,VWS V14.01,2013-02-01 11:41:00,
2013-02-01 06:47:00,21.7,2.7,29.17,WNW,292,8.5,8.5,43,0.00,,---,0.00,VWS V14.01,2013-02-01 11:47:00,
2013-02-01 06:52:00,21.6,2.0,29.14,NNW,338,4.9,5.6,42,0.00,,---,0.00,VWS V14.01,2013-02-01 11:52:00,
2013-02-01 06:57:00,21.7,2.2,29.14,NNW,338,7.8,10.5,42,0.00,,---,0.00,VWS V14.01,2013-02-01 11:57:00,
2013-02-01 07:02:00,21.7,2.2,29.14,West,270,3.4,10.3,42,0.00,,---,0.00,VWS V14.01,2013-02-01 12:02:00,
2013-02-01 07:08:00,21.6,2.0,29.17,WSW,248,5.6,5.6,42,0.00,,---,0.00,VWS V14.01,2013-02-01 12:08:00,
2013-02-01 07:13:00,21.6,2.0,29.17,WSW,248,4.0,4.0,42,0.00,,---,0.00,VWS V14.01,2013-02-01 12:13:00,
2013-02-01 07:18:00,21.6,2.0,29.17,WNW,292,4.3,4.3,42,0.00,,---,0.00,VWS V14.01,2013-02-01 12:18:00,
2013-02-01 07:23:00,21.6,2.0,29.20,West,270,4.0,6.5,42,0.00,,---,0.00,VWS V14.01,2013-02-01 12:23:00,
2013-02-01 07:28:00,21.6,2.0,29.20,WSW,248,5.4,5.4,42,0.00,,---,0.00,VWS V14.01,2013-02-01 12:28:00,
2013-02-01 07:33:00,21.7,2.2,29.20,NW,315,2.7,12.3,42,0.00,,---,0.00,VWS V14.01,2013-02-01 12:33:00,
2013-02-01 07:38:00,21.9,2.4,29.20,West,270,7.6,7.8,42,0.00,,---,0.00,VWS V14.01,2013-02-01 12:38:00,
2013-02-01 07:43:00,22.1,2.5,29.20,NNW,338,1.3,4.0,42,0.00,,---,0.00,VWS V14.01,2013-02-01 12:43:00,
2013-02-01 07:48:00,22.5,2.8,29.20,ESE,112,2.2,4.5,42,0.00,,---,0.00,VWS V14.01,2013-02-01 12:48:00,
2013-02-01 07:54:00,22.8,3.2,29.20,ESE,112,1.6,3.8,42,0.00,,---,0.00,VWS V14.01,2013-02-01 12:54:00,
2013-02-01 08:00:00,23.2,3.5,29.20,SW,225,3.6,3.6,42,0.00,,---,0.00,VWS V14.01,2013-02-01 13:00:00,
2013-02-01 08:06:00,23.4,3.7,29.20,SW,225,7.2,7.2,42,0.00,,---,0.00,VWS V14.01,2013-02-01 13:06:00,
2013-02-01 08:11:00,23.4,3.7,29.20,West,270,3.6,4.3,42,0.00,,---,0.00,VWS V14.01,2013-02-01 13:11:00,
2013-02-01 08:16:00,23.4,3.7,29.20,West,270,3.8,5.4,42,0.00,,---,0.00,VWS V14.01,2013-02-01 13:16:00,
2013-02-01 08:21:00,23.0,3.3,29.23,WSW,248,4.0,7.8,42,0.00,,---,0.00,VWS V14.01,2013-02-01 13:21:00,
2013-02-01 08:26:00,22.8,3.2,29.23,SSW,202,4.0,4.5,42,0.00,,---,0.00,VWS V14.01,2013-02-01 13:26:00,
2013-02-01 08:31:00,23.0,3.3,29.23,SW,225,1.3,5.6,42,0.00,,---,0.00,VWS V14.01,2013-02-01 13:31:00,
2013-02-01 08:36:00,22.8,3.2,29.23,WNW,292,10.1,10.1,42,0.00,,---,0.00,VWS V14.01,2013-02-01 13:36:00,
2013-02-01 08:42:00,22.8,3.2,29.23,WNW,292,3.8,6.5,42,0.00,,---,0.00,VWS V14.01,2013-02-01 13:42:00,
2013-02-01 08:47:00,22.8,3.2,29.23,WSW,248,6.3,6.3,42,0.00,,---,0.00,VWS V14.01,2013-02-01 13:47:00,
2013-02-01 08:52:00,22.8,3.2,29.23,NNE,22,6.7,7.2,42,0.00,,---,0.00,VWS V14.01,2013-02-01 13:52:00,
2013-02-01 08:57:00,22.8,3.2,29.23,WNW,292,3.4,8.5,42,0.00,,---,0.00,VWS V14.01,2013-02-01 13:57:00,
2013-02-01 09:03:00,22.8,3.2,29.23,WNW,292,3.6,7.8,42,0.00,,---,0.00,VWS V14.01,2013-02-01 14:03:00,
2013-02-01 09:09:00,22.8,3.2,29.23,West,270,4.7,6.0,42,0.00,,---,0.00,VWS V14.01,2013-02-01 14:09:00,
2013-02-01 09:15:00,22.6,3.0,29.23,West,270,4.0,7.8,42,0.00,,---,0.00,VWS V14.01,2013-02-01 14:15:00,
2013-02-01 09:21:00,22.5,2.3,29.26,WNW,292,5.6,6.5,41,0.00,,---,0.00,VWS V14.01,2013-02-01 14:21:00,
2013-02-01 09:26:00,22.6,3.0,29.26,West,270,9.6,9.6,42,0.00,,---,0.00,VWS V14.01,2013-02-01 14:26:00,
2013-02-01 09:31:00,22.6,2.5,29.26,WNW,292,4.9,4.9,41,0.00,,---,0.00,VWS V14.01,2013-02-01 14:31:00,
2013-02-01 09:36:00,22.8,3.2,29.26,WSW,248,4.0,4.7,42,0.00,,---,0.00,VWS V14.01,2013-02-01 14:36:00,
2013-02-01 09:41:00,22.8,2.7,29.26,West,270,4.9,4.9,41,0.00,,---,0.00,VWS V14.01,2013-02-01 14:41:00,
2013-02-01 09:46:00,22.6,2.5,29.26,WNW,292,5.6,8.5,41,0.00,,---,0.00,VWS V14.01,2013-02-01 14:46:00,
2013-02-01 09:51:00,22.5,2.3,29.29,West,270,3.8,5.6,41,0.00,,---,0.00,VWS V14.01,2013-02-01 14:51:00,
2013-02-01 09:57:00,22.6,3.0,29.29,WSW,248,2.0,4.0,42,0.00,,---,0.00,VWS V14.01,2013-02-01 14:57:00,
2013-02-01 10:03:00,22.8,3.2,29.29,WSW,248,5.6,6.0,42,0.00,,---,0.00,VWS V14.01,2013-02-01 15:03:00,
2013-02-01 10:09:00,23.2,3.5,29.29,WNW,292,3.4,5.6,42,0.00,,---,0.00,VWS V14.01,2013-02-01 15:09:00,
2013-02-01 10:14:00,23.4,3.2,29.29,West,270,3.6,4.7,41,0.00,,---,0.00,VWS V14.01,2013-02-01 15:14:00,
2013-02-01 10:19:00,23.9,4.2,29.29,West,270,4.9,5.4,42,0.00,,---,0.00,VWS V14.01,2013-02-01 15:19:00,
2013-02-01 10:24:00,24.3,4.5,29.29,West,270,4.9,6.0,42,0.00,,---,0.00,VWS V14.01,2013-02-01 15:24:00,
2013-02-01 10:29:00,24.1,4.3,29.29,SSW,202,4.3,6.3,42,0.00,,---,0.00,VWS V14.01,2013-02-01 15:29:00,
2013-02-01 10:34:00,24.3,4.5,29.29,West,270,6.3,6.3,42,0.00,,---,0.00,VWS V14.01,2013-02-01 15:34:00,
2013-02-01 10:40:00,24.6,4.8,29.29,SW,225,5.4,5.8,42,0.00,,---,0.00,VWS V14.01,2013-02-01 15:40:00,
2013-02-01 10:46:00,24.8,5.0,29.29,West,270,3.8,4.9,42,0.00,,---,0.00,VWS V14.01,2013-02-01 15:46:00,
2013-02-01 10:51:00,24.8,4.4,29.29,WNW,292,5.4,5.6,41,0.00,,---,0.00,VWS V14.01,2013-02-01 15:51:00,
2013-02-01 10:56:00,24.6,4.3,29.29,SSE,158,3.4,6.0,41,0.00,,---,0.00,VWS V14.01,2013-02-01 15:56:00,
2013-02-01 11:01:00,24.6,4.3,29.29,NNW,338,5.4,5.8,41,0.00,,---,0.00,VWS V14.01,2013-02-01 16:01:00,
2013-02-01 11:07:00,25.0,4.1,29.29,NW,315,5.8,7.8,40,0.00,,---,0.00,VWS V14.01,2013-02-01 16:07:00,
2013-02-01 11:12:00,25.3,4.9,29.29,West,270,5.8,5.8,41,0.00,,---,0.00,VWS V14.01,2013-02-01 16:12:00,
2013-02-01 11:17:00,25.3,4.4,29.29,West,270,3.1,6.3,40,0.00,,---,0.00,VWS V14.01,2013-02-01 16:17:00,
2013-02-01 11:22:00,25.5,4.6,29.29,NNW,338,7.6,8.1,40,0.00,,---,0.00,VWS V14.01,2013-02-01 16:22:00,
2013-02-01 11:27:00,25.3,3.9,29.29,West,270,7.2,7.2,39,0.00,,---,0.00,VWS V14.01,2013-02-01 16:27:00,
2013-02-01 11:32:00,25.9,4.3,29.29,West,270,2.9,3.1,39,0.00,,---,0.00,VWS V14.01,2013-02-01 16:32:00,
2013-02-01 11:37:00,26.4,4.8,29.32,SSW,202,4.9,4.9,39,0.00,,---,0.00,VWS V14.01,2013-02-01 16:37:00,
2013-02-01 11:43:00,26.4,4.8,29.32,WSW,248,5.8,5.8,39,0.00,,---,0.00,VWS V14.01,2013-02-01 16:43:00,
2013-02-01 11:48:00,26.6,5.0,29.32,West,270,8.7,8.7,39,0.00,,---,0.00,VWS V14.01,2013-02-01 16:48:00,
2013-02-01 11:54:00,26.8,4.6,29.29,West,270,3.4,4.9,38,0.00,,---,0.00,VWS V14.01,2013-02-01 16:54:00,
2013-02-01 11:59:00,27.0,4.8,29.29,WSW,248,2.5,4.9,38,0.00,,---,0.00,VWS V14.01,2013-02-01 16:59:00,
2013-02-01 12:04:00,27.1,4.9,29.32,West,270,6.5,6.5,38,0.00,,---,0.00,VWS V14.01,2013-02-01 17:04:00,
2013-02-01 12:09:00,27.5,5.2,29.32,WNW,292,2.7,4.3,38,0.00,,---,0.00,VWS V14.01,2013-02-01 17:09:00,
2013-02-01 12:15:00,27.9,5.0,29.32,WNW,292,10.3,10.3,37,0.00,,---,0.00,VWS V14.01,2013-02-01 17:15:00,
2013-02-01 12:20:00,27.7,4.8,29.29,SW,225,8.5,8.5,37,0.00,,---,0.00,VWS V14.01,2013-02-01 17:20:00,
2013-02-01 12:25:00,27.3,3.9,29.29,West,270,7.6,11.9,36,0.00,,---,0.00,VWS V14.01,2013-02-01 17:25:00,
2013-02-01 12:30:00,27.1,4.3,29.29,SSW,202,5.4,9.8,37,0.00,,---,0.00,VWS V14.01,2013-02-01 17:30:00,
2013-02-01 12:35:00,27.1,4.9,29.29,South,180,6.5,11.2,38,0.00,,---,0.00,VWS V14.01,2013-02-01 17:35:00,
2013-02-01 12:41:00,26.8,4.0,29.29,WSW,248,4.9,4.9,37,0.00,,---,0.00,VWS V14.01,2013-02-01 17:41:00,
2013-02-01 12:47:00,27.0,4.8,29.29,WSW,248,6.3,8.1,38,0.00,,---,0.00,VWS V14.01,2013-02-01 17:47:00,
2013-02-01 12:52:00,27.1,4.3,29.29,West,270,8.5,8.5,37,0.00,,---,0.00,VWS V14.01,2013-02-01 17:52:00,
2013-02-01 12:57:00,27.3,5.1,29.29,WNW,292,7.4,7.4,38,0.00,,---,0.00,VWS V14.01,2013-02-01 17:57:00,
2013-02-01 13:02:00,27.5,5.2,29.29,West,270,3.6,5.4,38,0.00,,---,0.00,VWS V14.01,2013-02-01 18:02:00,
2013-02-01 13:07:00,27.7,5.4,29.29,ESE,112,4.7,4.7,38,0.00,,---,0.00,VWS V14.01,2013-02-01 18:07:00,
2013-02-01 13:12:00,27.3,3.9,29.29,West,270,6.0,7.4,36,0.00,,---,0.00,VWS V14.01,2013-02-01 18:12:00,
2013-02-01 13:17:00,27.9,5.0,29.29,West,270,5.6,7.4,37,0.00,,---,0.00,VWS V14.01,2013-02-01 18:17:00,
2013-02-01 13:22:00,27.7,4.8,29.29,West,270,4.7,5.4,37,0.00,,---,0.00,VWS V14.01,2013-02-01 18:22:00,
2013-02-01 13:28:00,27.9,5.0,29.29,WSW,248,3.6,3.8,37,0.00,,---,0.00,VWS V14.01,2013-02-01 18:28:00,
2013-02-01 13:33:00,27.7,4.8,29.29,West,270,5.8,5.8,37,0.00,,---,0.00,VWS V14.01,2013-02-01 18:33:00,
2013-02-01 13:38:00,27.5,4.7,29.29,West,270,6.3,6.3,37,0.00,,---,0.00,VWS V14.01,2013-02-01 18:38:00,
2013-02-01 13:43:00,27.9,5.0,29.29,WSW,248,3.1,3.8,37,0.00,,---,0.00,VWS V14.01,2013-02-01 18:43:00,
2013-02-01 13:48:00,27.7,4.2,29.29,WNW,292,3.8,7.6,36,0.00,,---,0.00,VWS V14.01,2013-02-01 18:48:00,
2013-02-01 13:53:00,28.2,4.7,29.29,WNW,292,1.6,1.6,36,0.00,,---,0.00,VWS V14.01,2013-02-01 18:53:00,
2013-02-01 13:58:00,28.4,4.9,29.29,West,270,4.9,6.7,36,0.00,,---,0.00,VWS V14.01,2013-02-01 18:58:00,
2013-02-01 14:03:00,28.2,5.3,29.29,WNW,292,6.9,7.6,37,0.00,,---,0.00,VWS V14.01,2013-02-01 19:03:00,
2013-02-01 14:08:00,28.0,5.1,29.29,West,270,4.9,6.3,37,0.00,,---,0.00,VWS V14.01,2013-02-01 19:08:00,
2013-02-01 14:13:00,27.9,4.4,29.29,WNW,292,4.3,7.2,36,0.00,,---,0.00,VWS V14.01,2013-02-01 19:13:00,
2013-02-01 14:18:00,27.9,4.4,29.29,NNW,338,2.7,6.5,36,0.00,,---,0.00,VWS V14.01,2013-02-01 19:18:00,
2013-02-01 14:23:00,27.9,4.4,29.29,WNW,292,1.6,3.6,36,0.00,,---,0.00,VWS V14.01,2013-02-01 19:23:00,
2013-02-01 14:28:00,28.0,4.5,29.29,NNW,338,4.9,7.2,36,0.00,,---,0.00,VWS V14.01,2013-02-01 19:28:00,
2013-02-01 14:33:00,27.7,3.6,29.29,NNW,338,8.5,8.5,35,0.00,,---,0.00,VWS V14.01,2013-02-01 19:33:00,
2013-02-01 14:38:00,27.7,4.2,29.29,East,90,4.3,4.3,36,0.00,,---,0.00,VWS V14.01,2013-02-01 19:38:00,
2013-02-01 14:43:00,27.5,3.5,29.29,WNW,292,2.7,4.0,35,0.00,,---,0.00,VWS V14.01,2013-02-01 19:43:00,
2013-02-01 14:48:00,27.1,3.1,29.29,NNW,338,4.9,5.4,35,0.00,,---,0.00,VWS V14.01,2013-02-01 19:48:00,
2013-02-01 14:53:00,27.0,3.0,29.29,NNW,338,4.7,4.7,35,0.00,,---,0.00,VWS V14.01,2013-02-01 19:53:00,
2013-02-01 14:58:00,27.0,3.0,29.29,NNW,338,3.4,3.4,35,0.00,,---,0.00,VWS V14.01,2013-02-01 19:58:00,
2013-02-01 15:03:00,26.8,2.8,29.29,NNW,338,3.8,3.8,35,0.00,,---,0.00,VWS V14.01,2013-02-01 20:03:00,
2013-02-01 15:08:00,26.4,3.1,29.32,WSW,248,2.9,2.9,36,0.00,,---,0.00,VWS V14.01,2013-02-01 20:08:00,
2013-02-01 15:14:00,26.4,3.1,29.32,SW,225,2.9,3.8,36,0.00,,---,0.00,VWS V14.01,2013-02-01 20:14:00,
2013-02-01 15:19:00,26.1,2.8,29.32,SW,225,2.5,3.1,36,0.00,,---,0.00,VWS V14.01,2013-02-01 20:19:00,
2013-02-01 15:24:00,25.9,2.6,29.32,WSW,248,3.8,3.8,36,0.00,,---,0.00,VWS V14.01,2013-02-01 20:24:00,
2013-02-01 15:30:00,25.7,2.5,29.32,ENE,68,4.0,4.0,36,0.00,,---,0.00,VWS V14.01,2013-02-01 20:30:00,
2013-02-01 15:35:00,25.2,2.0,29.32,WNW,292,1.3,4.0,36,0.00,,---,0.00,VWS V14.01,2013-02-01 20:35:00,
2013-02-01 15:41:00,24.6,1.5,29.32,ESE,112,3.6,3.6,36,0.00,,---,0.00,VWS V14.01,2013-02-01 20:41:00,
2013-02-01 15:46:00,23.9,0.8,29.32,SSW,202,4.3,4.3,36,0.00,,---,0.00,VWS V14.01,2013-02-01 20:46:00,
2013-02-01 15:51:00,23.4,0.9,29.32,ENE,68,2.9,3.6,37,0.00,,---,0.00,VWS V14.01,2013-02-01 20:51:00,
2013-02-01 15:57:00,22.8,0.5,29.32,WSW,248,4.5,4.5,37,0.00,,---,0.00,VWS V14.01,2013-02-01 20:57:00,
2013-02-01 16:02:00,22.3,0.0,29.32,West,270,2.5,5.8,37,0.00,,---,0.00,VWS V14.01,2013-02-01 21:02:00,
2013-02-01 16:07:00,21.9,-0.3,29.35,ENE,68,3.1,6.0,37,0.00,,---,0.00,VWS V14.01,2013-02-01 21:07:00,
2013-02-01 16:12:00,21.6,-0.7,29.35,SSE,158,1.6,3.8,37,0.00,,---,0.00,VWS V14.01,2013-02-01 21:12:00,
2013-02-01 16:17:00,21.4,-0.8,29.35,SSE,158,3.1,4.7,37,0.00,,---,0.00,VWS V14.01,2013-02-01 21:17:00,
2013-02-01 16:22:00,21.2,-0.4,29.35,NE,45,0.9,1.6,38,0.00,,---,0.00,VWS V14.01,2013-02-01 21:22:00,
2013-02-01 16:27:00,20.8,-0.8,29.35,West,270,2.0,4.9,38,0.00,,---,0.00,VWS V14.01,2013-02-01 21:27:00,
2013-02-01 16:32:00,20.7,-0.9,29.35,SSW,202,2.5,2.9,38,0.00,,---,0.00,VWS V14.01,2013-02-01 21:32:00,
2013-02-01 16:37:00,20.3,-1.2,29.35,SSW,202,1.6,1.6,38,0.00,,---,0.00,VWS V14.01,2013-02-01 21:37:00,
2013-02-01 16:43:00,19.9,-1.6,29.35,West,270,2.0,3.6,38,0.00,,---,0.00,VWS V14.01,2013-02-01 21:43:00,
2013-02-01 16:48:00,19.8,-1.7,29.35,NNE,22,2.7,2.7,38,0.00,,---,0.00,VWS V14.01,2013-02-01 21:48:00,
2013-02-01 16:53:00,19.4,-2.0,29.38,NNW,338,2.2,2.5,38,0.00,,---,0.00,VWS V14.01,2013-02-01 21:53:00,
2013-02-01 16:58:00,18.9,-2.5,29.38,ENE,68,1.1,1.3,38,0.00,,---,0.00,VWS V14.01,2013-02-01 21:58:00,
2013-02-01 17:03:00,18.5,-2.9,29.38,East,90,0.0,2.0,38,0.00,,---,0.00,VWS V14.01,2013-02-01 22:03:00,
2013-02-01 17:08:00,18.1,-3.2,29.38,East,90,0.0,0.0,38,0.00,,---,0.00,VWS V14.01,2013-02-01 22:08:00,
2013-02-01 17:13:00,17.8,-3.5,29.38,ESE,112,2.9,2.9,38,0.00,,---,0.00,VWS V14.01,2013-02-01 22:13:00,
2013-02-01 17:18:00,17.6,-3.1,29.38,ESE,112,1.3,2.0,39,0.00,,---,0.00,VWS V14.01,2013-02-01 22:18:00,
2013-02-01 17:23:00,17.4,-3.3,29.38,WSW,248,2.5,2.5,39,0.00,,---,0.00,VWS V14.01,2013-02-01 22:23:00,
2013-02-01 17:28:00,17.1,-3.6,29.38,WSW,248,1.6,1.6,39,0.00,,---,0.00,VWS V14.01,2013-02-01 22:28:00,
2013-02-01 17:33:00,17.1,-3.6,29.38,South,180,1.1,3.6,39,0.00,,---,0.00,VWS V14.01,2013-02-01 22:33:00,
2013-02-01 17:38:00,16.9,-3.8,29.41,WNW,292,1.6,2.7,39,0.00,,---,0.00,VWS V14.01,2013-02-01 22:38:00,
2013-02-01 17:43:00,16.7,-3.9,29.41,SSE,158,0.0,2.2,39,0.00,,---,0.00,VWS V14.01,2013-02-01 22:43:00,
2013-02-01 17:48:00,16.7,-3.4,29.41,SSW,202,2.5,2.7,40,0.00,,---,0.00,VWS V14.01,2013-02-01 22:48:00,
2013-02-01 17:53:00,16.3,-3.7,29.41,SSW,202,0.0,0.0,40,0.00,,---,0.00,VWS V14.01,2013-02-01 22:53:00,
2013-02-01 17:58:00,15.8,-4.2,29.41,SSW,202,0.9,1.6,40,0.00,,---,0.00,VWS V14.01,2013-02-01 22:58:00,
2013-02-01 18:03:00,15.4,-4.0,29.41,SSW,202,0.0,0.0,41,0.00,,---,0.00,VWS V14.01,2013-02-01 23:03:00,
2013-02-01 18:08:00,15.6,-3.4,29.41,NE,45,3.4,3.6,42,0.00,,---,0.00,VWS V14.01,2013-02-01 23:08:00,
2013-02-01 18:13:00,15.6,-3.4,29.41,NNW,338,1.1,1.1,42,0.00,,---,0.00,VWS V14.01,2013-02-01 23:13:00,
2013-02-01 18:18:00,15.4,-3.0,29.41,WSW,248,0.0,0.0,43,0.00,,---,0.00,VWS V14.01,2013-02-01 23:18:00,
2013-02-01 18:23:00,15.3,-3.2,29.41,WSW,248,0.0,0.0,43,0.00,,---,0.00,VWS V14.01,2013-02-01 23:23:00,
2013-02-01 18:28:00,15.3,-2.7,29.41,NNE,22,0.0,1.1,44,0.00,,---,0.00,VWS V14.01,2013-02-01 23:28:00,
2013-02-01 18:33:00,14.9,-3.1,29.41,NNE,22,0.0,0.0,44,0.00,,---,0.00,VWS V14.01,2013-02-01 23:33:00,
2013-02-01 18:38:00,14.9,-3.1,29.44,NNE,22,0.0,0.0,44,0.00,,---,0.00,VWS V14.01,2013-02-01 23:38:00,
2013-02-01 18:43:00,14.9,-3.1,29.44,NE,45,3.4,3.4,44,0.00,,---,0.00,VWS V14.01,2013-02-01 23:43:00,
2013-02-01 18:48:00,15.1,-2.9,29.44,NE,45,0.0,1.1,44,0.00,,---,0.00,VWS V14.01,2013-02-01 23:48:00,
2013-02-01 18:53:00,15.3,-2.7,29.44,NE,45,2.0,2.0,44,0.00,,---,0.00,VWS V14.01,2013-02-01 23:53:00,
2013-02-01 18:58:00,15.3,-2.7,29.44,ENE,68,2.5,3.1,44,0.00,,---,0.00,VWS V14.01,2013-02-01 23:58:00,
2013-02-01 19:03:00,15.4,-2.6,29.44,East,90,1.3,1.3,44,0.00,,---,0.00,VWS V14.01,2013-02-02 00:03:00,
2013-02-01 19:08:00,15.1,-2.9,29.44,East,90,0.0,0.0,44,0.00,,---,0.00,VWS V14.01,2013-02-02 00:08:00,
2013-02-01 19:13:00,14.5,-3.4,29.44,ENE,68,0.0,0.0,44,0.00,,---,0.00,VWS V14.01,2013-02-02 00:13:00,
2013-02-01 19:18:00,14.5,-2.9,29.44,ENE,68,2.5,2.9,45,0.00,,---,0.00,VWS V14.01,2013-02-02 00:18:00,
2013-02-01 19:24:00,14.9,-2.6,29.47,NE,45,0.0,0.0,45,0.00,,---,0.00,VWS V14.01,2013-02-02 00:24:00,
2013-02-01 19:29:00,14.9,-2.6,29.47,NE,45,2.0,2.0,45,0.00,,---,0.00,VWS V14.01,2013-02-02 00:29:00,
2013-02-01 19:34:00,14.7,-2.8,29.47,WNW,292,2.0,2.0,45,0.00,,---,0.00,VWS V14.01,2013-02-02 00:34:00,
2013-02-01 19:39:00,14.5,-2.9,29.47,WNW,292,2.0,2.0,45,0.00,,---,0.00,VWS V14.01,2013-02-02 00:39:00,
2013-02-01 19:45:00,14.4,-2.6,29.47,WNW,292,0.0,0.0,46,0.00,,---,0.00,VWS V14.01,2013-02-02 00:45:00,
2013-02-01 19:50:00,14.4,-2.6,29.47,WNW,292,2.0,2.0,46,0.00,,---,0.00,VWS V14.01,2013-02-02 00:50:00,
2013-02-01 19:56:00,14.4,-2.6,29.47,WNW,292,0.0,0.0,46,0.00,,---,0.00,VWS V14.01,2013-02-02 00:56:00,
2013-02-01 20:01:00,14.4,-2.6,29.47,WNW,292,0.0,0.0,46,0.00,,---,0.00,VWS V14.01,2013-02-02 01:01:00,
2013-02-01 20:06:00,14.2,-2.3,29.50,WNW,292,0.0,0.0,47,0.00,,---,0.00,VWS V14.01,2013-02-02 01:06:00,
2013-02-01 20:11:00,14.0,-2.5,29.50,WNW,292,0.0,0.0,47,0.00,,---,0.00,VWS V14.01,2013-02-02 01:11:00,
2013-02-01 20:17:00,13.8,-2.7,29.50,WNW,292,0.0,0.0,47,0.00,,---,0.00,VWS V14.01,2013-02-02 01:17:00,
2013-02-01 20:22:00,13.8,-2.7,29.50,WNW,292,0.0,0.0,47,0.00,,---,0.00,VWS V14.01,2013-02-02 01:22:00,
2013-02-01 20:28:00,13.8,-2.7,29.50,SSW,202,2.5,2.5,47,0.00,,---,0.00,VWS V14.01,2013-02-02 01:28:00,
2013-02-01 20:34:00,14.0,-2.5,29.50,SSW,202,0.0,1.1,47,0.00,,---,0.00,VWS V14.01,2013-02-02 01:34:00,
2013-02-01 20:39:00,14.0,-2.1,29.50,SSW,202,0.0,0.0,48,0.00,,---,0.00,VWS V14.01,2013-02-02 01:39:00,
2013-02-01 20:44:00,14.2,-2.3,29.50,SSW,202,0.0,0.0,47,0.00,,---,0.00,VWS V14.01,2013-02-02 01:44:00,
2013-02-01 20:49:00,14.2,-2.3,29.50,SW,225,2.2,2.5,47,0.00,,---,0.00,VWS V14.01,2013-02-02 01:49:00,
2013-02-01 20:55:00,14.2,-2.3,29.50,SW,225,1.6,1.6,47,0.00,,---,0.00,VWS V14.01,2013-02-02 01:55:00,
2013-02-01 21:00:00,14.2,-1.9,29.50,SW,225,1.3,1.6,48,0.00,,---,0.00,VWS V14.01,2013-02-02 02:00:00,
2013-02-01 21:05:00,14.2,-1.9,29.53,SW,225,0.0,1.1,48,0.00,,---,0.00,VWS V14.01,2013-02-02 02:05:00,
2013-02-01 21:10:00,14.2,-1.9,29.53,SW,225,0.0,0.0,48,0.00,,---,0.00,VWS V14.01,2013-02-02 02:10:00,
2013-02-01 21:16:00,14.4,-1.7,29.53,SE,135,0.0,0.0,48,0.00,,---,0.00,VWS V14.01,2013-02-02 02:16:00,
2013-02-01 21:21:00,14.4,-1.7,29.53,SE,135,0.0,0.0,48,0.00,,---,0.00,VWS V14.01,2013-02-02 02:21:00,
2013-02-01 21:26:00,14.4,-1.7,29.53,SE,135,0.0,0.0,48,0.00,,---,0.00,VWS V14.01,2013-02-02 02:26:00,
2013-02-01 21:31:00,14.4,-1.7,29.53,SE,135,0.0,0.0,48,0.00,,---,0.00,VWS V14.01,2013-02-02 02:31:00,
2013-02-01 21:37:00,14.4,-1.7,29.53,SE,135,1.3,1.6,48,0.00,,---,0.00,VWS V14.01,2013-02-02 02:37:00,
2013-02-01 21:42:00,14.2,-1.9,29.53,SE,135,0.0,0.0,48,0.00,,---,0.00,VWS V14.01,2013-02-02 02:42:00,
2013-02-01 21:47:00,14.0,-1.6,29.53,SE,135,1.6,2.0,49,0.00,,---,0.00,VWS V14.01,2013-02-02 02:47:00,
2013-02-01 21:52:00,13.8,-1.8,29.53,SE,135,0.0,0.0,49,0.00,,---,0.00,VWS V14.01,2013-02-02 02:52:00,
2013-02-01 21:58:00,13.8,-1.8,29.53,SE,135,0.0,0.0,49,0.00,,---,0.00,VWS V14.01,2013-02-02 02:58:00,
2013-02-01 22:03:00,13.6,-2.0,29.53,SE,135,1.1,1.1,49,0.00,,---,0.00,VWS V14.01,2013-02-02 03:03:00,
2013-02-01 22:09:00,13.5,-2.1,29.53,SE,135,0.0,0.0,49,0.00,,---,0.00,VWS V14.01,2013-02-02 03:09:00,
2013-02-01 22:14:00,13.3,-2.3,29.53,SE,135,1.1,1.3,49,0.00,,---,0.00,VWS V14.01,2013-02-02 03:14:00,
2013-02-01 22:20:00,13.3,-2.3,29.53,SE,135,1.1,1.6,49,0.00,,---,0.00,VWS V14.01,2013-02-02 03:20:00,
2013-02-01 22:26:00,13.6,-2.0,29.53,SE,135,0.0,0.0,49,0.00,,---,0.00,VWS V14.01,2013-02-02 03:26:00,
2013-02-01 22:31:00,13.5,-2.1,29.53,WSW,248,2.2,2.5,49,0.00,,---,0.00,VWS V14.01,2013-02-02 03:31:00,
2013-02-01 22:36:00,13.6,-2.0,29.56,SW,225,0.0,0.0,49,0.00,,---,0.00,VWS V14.01,2013-02-02 03:36:00,
2013-02-01 22:42:00,13.6,-2.0,29.56,NNE,22,0.0,0.0,49,0.00,,---,0.00,VWS V14.01,2013-02-02 03:42:00,
2013-02-01 22:47:00,13.6,-2.0,29.56,NNE,22,1.1,1.1,49,0.00,,---,0.00,VWS V14.01,2013-02-02 03:47:00,
2013-02-01 22:53:00,13.5,-2.1,29.56,WNW,292,2.5,2.5,49,0.00,,---,0.00,VWS V14.01,2013-02-02 03:53:00,
2013-02-01 22:58:00,13.3,-2.3,29.56,West,270,0.9,1.3,49,0.00,,---,0.00,VWS V14.01,2013-02-02 03:58:00,
2013-02-01 23:03:00,12.7,-2.8,29.56,West,270,0.0,0.0,49,0.00,,---,0.00,VWS V14.01,2013-02-02 04:03:00,
2013-02-01 23:08:00,12.6,-3.0,29.56,West,270,0.0,0.0,49,0.00,,---,0.00,VWS V14.01,2013-02-02 04:08:00,
2013-02-01 23:13:00,12.2,-3.3,29.56,West,270,0.0,0.0,49,0.00,,---,0.00,VWS V14.01,2013-02-02 04:13:00,
2013-02-01 23:18:00,12.0,-3.5,29.56,West,270,0.0,0.0,49,0.00,,---,0.00,VWS V14.01,2013-02-02 04:18:00,
2013-02-01 23:23:00,11.7,-3.8,29.56,ENE,68,1.3,1.3,49,0.00,,---,0.00,VWS V14.01,2013-02-02 04:23:00,
2013-02-01 23:29:00,12.0,-3.5,29.56,West,270,1.6,2.7,49,0.00,,---,0.00,VWS V14.01,2013-02-02 04:29:00,
2013-02-01 23:34:00,11.8,-3.6,29.56,West,270,0.0,0.0,49,0.00,,---,0.00,VWS V14.01,2013-02-02 04:34:00,
2013-02-01 23:39:00,11.8,-3.6,29.56,West,270,0.0,0.9,49,0.00,,---,0.00,VWS V14.01,2013-02-02 04:39:00,
2013-02-01 23:44:00,11.7,-3.8,29.56,West,270,0.0,0.0,49,0.00,,---,0.00,VWS V14.01,2013-02-02 04:44:00,
2013-02-01 23:50:00,11.3,-4.1,29.56,West,270,0.0,0.0,49,0.00,,---,0.00,VWS V14.01,2013-02-02 04:50:00,
2013-02-01 23:55:00,10.9,-4.5,29.56,West,270,0.0,0.0,49,0.00,,---,0.00,VWS V14.01,2013-02-02 04:55:00,